Disclaimer

Please do not use the information listed here in-flight or in-navigation, as they are not provided to us by the airports but are provided by volunteers, so they might be outdated.

Search


Regions


Airport information page

Radio informations:
Tower (TWR) - 118.3 MHz
FLT TECH AVN INC - 123.0 MHz
Ground (GND) - 121.7 MHz
RDO - 122.5 MHz
DEP - 133.65 MHz
Clearance delivery - 124.1 MHz
Automatic Terminal Information Service (ATIS) - 128.0 MHz
ARR - 120.5 MHz
Approach (APP) - 118.3 MHz
TWR VFR ADVSY SV - 118.3 MHz

Airport informations:
Latitude: 53° 18' 35.00" N
Longitude: 113° 34' 47.00" W
Elevation: 2373 feet - 723 meters
Operating hours: N/A
Operating agency: Municipal
Timezone: Second Sunday in March at 0200 to first Sunday in November at 0200 local time (Exception Arizona and that portion of Indiana in the Eastern Time Zone)
Fuel: Jet B, Wide cut turbine fuel, Without icing inhibitor.

Jet A1, without icing nhibitor.

100/130 octane gasoline, leaded, MIL-L-5572F (GREEN)

Runway information:
02/20 - 11000 x 200 feet< - >3353 x 61 meters
12/30 - 10200 x 200 feet< - >3109 x 61 meters

Recent METARs:
CYEG 181709Z 29009KT 20SM FEW017 SCT028 SCT059 OVC110 02/01 A2986 RMK SF1SC2SC1AC4 SLP145
CYEG 181709Z 29009KT 20SM FEW017 SCT028 SCT059 OVC110 02/01 A2986 RMK SF1SC2SC1AC4 SLP145
CYEG 181800Z 30012KT 20SM BKN020 OVC095 03/01 A2988 RMK SC5AC3 SLP152

Airport on the map: